Time;durP1;ratioP1;P1;durP2;ratioP2;P2;SDS_P1;SDS_P2;PMS_P1;PMS_P2;Temp;Humidity;BMP_temperature;BMP_pressure;BME280_temperature;BME280_humidity;BME280_pressure;Samples;Min_cycle;Max_cycle;Signal;HPM_P1;HPM_P2
2022/02/21 00:01:31;;;;;;;49.33;27.43;;;;;;;3.57;62.16;100327.64;126220;1099;104306;-81
2022/02/21 00:04:03;;;;;;;50.10;27.90;;;;;;;3.53;62.76;100324.77;126207;1098;104191;-80
2022/02/21 00:06:34;;;;;;;57.53;29.10;;;;;;;3.50;62.54;100321.98;126179;1099;104351;-80
2022/02/21 00:09:05;;;;;;;50.07;25.50;;;;;;;3.44;62.77;100322.49;126278;1099;104172;-81
2022/02/21 00:11:37;;;;;;;45.73;24.83;;;;;;;3.41;63.11;100311.92;126242;1099;104178;-80
2022/02/21 00:14:14;;;;;;;48.13;23.97;;;;;;;3.37;62.75;100320.34;126252;1099;104195;-81
2022/02/21 00:16:45;;;;;;;50.50;25.23;;;;;;;3.32;63.05;100317.47;126159;1099;104431;-81
2022/02/21 00:19:21;;;;;;;48.53;24.53;;;;;;;3.30;62.40;100320.75;126253;1099;104319;-80
2022/02/21 00:21:55;;;;;;;57.60;30.60;;;;;;;3.27;63.00;100317.97;126250;1099;104216;-81
2022/02/21 00:24:31;;;;;;;55.80;29.83;;;;;;;3.27;63.04;100312.78;126292;1099;104190;-80
2022/02/21 00:27:03;;;;;;;51.77;26.93;;;;;;;3.24;62.59;100310.88;126288;1096;104213;-81
2022/02/21 00:29:38;;;;;;;50.43;26.80;;;;;;;3.22;63.05;100303.02;126303;1099;104200;-80
2022/02/21 00:32:11;;;;;;;49.97;24.37;;;;;;;3.21;63.06;100306.42;126366;1096;104194;-80
2022/02/21 00:34:44;;;;;;;44.60;23.95;;;;;;;3.21;63.29;100309.02;126380;1096;104189;-80
2022/02/21 00:37:15;;;;;;;49.93;25.15;;;;;;;3.19;63.12;100304.53;126309;1096;104205;-81
2022/02/21 00:39:50;;;;;;;44.30;23.40;;;;;;;3.17;63.50;100301.84;126360;1099;104287;-81
2022/02/21 00:42:24;;;;;;;46.03;24.43;;;;;;;3.17;63.02;100304.44;126329;1099;104373;-81
2022/02/21 00:44:59;;;;;;;48.93;24.90;;;;;;;3.13;62.74;100297.28;126350;1098;101754;-81
2022/02/21 00:47:31;;;;;;;50.13;26.17;;;;;;;3.12;62.76;100302.38;126274;1099;104187;-80
2022/02/21 00:50:04;;;;;;;50.17;26.50;;;;;;;3.07;63.53;100294.31;126375;1099;104265;-80
2022/02/21 00:52:35;;;;;;;47.83;26.13;;;;;;;3.05;63.11;100295.89;126284;1099;104242;-80
2022/02/21 00:55:08;;;;;;;51.10;24.75;;;;;;;3.02;62.99;100293.11;126303;1099;104274;-80
2022/02/21 00:57:39;;;;;;;46.07;22.10;;;;;;;2.99;62.77;100292.91;126354;1097;104201;-80
2022/02/21 01:00:12;;;;;;;43.07;22.47;;;;;;;2.97;62.82;100287.63;126324;1099;104246;-80
2022/02/21 01:02:43;;;;;;;40.00;20.87;;;;;;;2.93;63.17;100285.67;126396;1097;104220;-80
2022/02/21 01:05:17;;;;;;;38.80;21.63;;;;;;;2.87;63.28;100286.17;126372;1099;104274;-80
2022/02/21 01:07:51;;;;;;;45.23;24.13;;;;;;;2.79;63.91;100286.47;126310;1098;104149;-80
2022/02/21 01:10:23;;;;;;;42.78;22.65;;;;;;;2.72;63.31;100290.38;126376;1099;104569;-81
2022/02/21 01:12:56;;;;;;;49.43;27.03;;;;;;;2.66;63.63;100295.17;126258;1099;104278;-81
2022/02/21 01:15:29;;;;;;;52.80;27.47;;;;;;;2.58;63.54;100292.09;126338;1099;104178;-81
2022/02/21 01:18:01;;;;;;;;;;;;;;;2.56;63.80;100292.81;126338;1096;104124;-80
2022/02/21 01:20:38;;;;;;;51.77;27.77;;;;;;;2.54;62.91;100302.16;126300;1096;104188;-81
2022/02/21 01:23:11;;;;;;;47.43;26.77;;;;;;;2.54;63.39;100291.79;126295;1099;104150;-80
2022/02/21 01:25:44;;;;;;;51.17;26.70;;;;;;;2.52;63.74;100286.52;126298;1099;104192;-81
2022/02/21 01:28:18;;;;;;;48.67;27.67;;;;;;;2.50;63.74;100289.00;126312;1096;104165;-80
2022/02/21 01:30:50;;;;;;;51.35;27.30;;;;;;;2.48;63.33;100290.61;126345;1099;104188;-81
2022/02/21 01:33:23;;;;;;;48.83;25.70;;;;;;;2.43;63.77;100294.61;126294;1099;104149;-80
2022/02/21 01:35:54;;;;;;;45.13;24.23;;;;;;;2.41;63.73;100297.88;126313;1099;104252;-80
2022/02/21 01:38:26;;;;;;;47.53;22.83;;;;;;;2.40;63.72;100290.89;126304;1096;104156;-80
2022/02/21 01:40:57;;;;;;;45.40;23.30;;;;;;;2.41;63.74;100290.11;126387;1096;104155;-80
2022/02/21 01:43:30;;;;;;;48.53;25.47;;;;;;;2.38;64.04;100292.50;126387;1096;104140;-80
2022/02/21 01:46:04;;;;;;;53.27;28.53;;;;;;;2.35;63.68;100288.01;126328;1096;104152;-80
2022/02/21 01:48:35;;;;;;;59.70;32.50;;;;;;;2.32;63.80;100296.50;126306;1096;104155;-80
2022/02/21 01:51:08;;;;;;;62.80;34.90;;;;;;;2.31;63.38;100291.22;126361;1099;104168;-80
2022/02/21 01:53:40;;;;;;;59.50;31.50;;;;;;;2.29;63.83;100298.88;126352;1099;104169;-81
2022/02/21 01:56:11;;;;;;;47.37;28.00;;;;;;;2.26;64.14;100303.86;126372;1099;104205;-80
2022/02/21 01:58:42;;;;;;;54.83;30.87;;;;;;;2.24;64.14;100301.95;126277;1096;104274;-80
2022/02/21 02:01:14;;;;;;;54.77;29.50;;;;;;;2.20;63.50;100293.10;126338;1099;104108;-81
2022/02/21 02:03:46;;;;;;;50.20;28.77;;;;;;;2.20;63.96;100287.00;126378;1096;104277;-81
2022/02/21 02:06:18;;;;;;;46.87;26.80;;;;;;;2.20;64.09;100281.83;126337;1096;104139;-81
2022/02/21 02:08:50;;;;;;;46.57;26.03;;;;;;;2.19;64.37;100291.30;126341;1096;104159;-81
2022/02/21 02:11:36;;;;;;;51.47;26.83;;;;;;;2.13;64.38;100288.30;126299;1098;104194;-80
2022/02/21 02:14:07;;;;;;;50.53;27.87;;;;;;;2.08;64.19;100293.17;126310;1099;104143;-81
2022/02/21 02:16:39;;;;;;;51.30;28.90;;;;;;;2.08;64.09;100292.29;126352;1098;104157;-81
2022/02/21 02:19:10;;;;;;;49.70;29.63;;;;;;;2.08;64.20;100302.64;126304;1096;104139;-81
2022/02/21 02:21:42;;;;;;;48.93;28.77;;;;;;;2.08;64.21;100295.77;126351;1096;104273;-81
2022/02/21 02:24:15;;;;;;;52.70;30.10;;;;;;;2.08;64.03;100289.70;126349;1096;104147;-80
2022/02/21 02:26:48;;;;;;;57.83;32.67;;;;;;;2.05;64.46;100294.67;126355;1096;104146;-81
2022/02/21 02:29:19;;;;;;;55.33;32.00;;;;;;;1.99;64.41;100292.56;126292;1096;105351;-81
2022/02/21 02:31:52;;;;;;;58.63;32.60;;;;;;;1.92;64.05;100287.80;126368;1099;104181;-81
2022/02/21 02:34:24;;;;;;;59.30;35.37;;;;;;;1.88;64.68;100289.26;126325;1099;104150;-80
2022/02/21 02:36:55;;;;;;;64.43;35.57;;;;;;;1.87;64.09;100287.48;126363;1099;104566;-81
2022/02/21 02:39:28;;;;;;;63.07;35.50;;;;;;;1.88;64.36;100288.37;126192;1099;104602;-81
2022/02/21 02:41:59;;;;;;;60.80;37.10;;;;;;;1.84;64.62;100296.72;126097;1099;104168;-81
2022/02/21 02:44:31;;;;;;;59.30;35.57;;;;;;;1.82;64.03;100298.31;126187;1099;104159;-81
2022/02/21 02:47:07;;;;;;;64.50;37.95;;;;;;;1.77;64.55;100285.06;126188;1099;104143;-81
2022/02/21 02:49:40;;;;;;;57.67;35.77;;;;;;;1.76;64.36;100291.94;126118;1099;104213;-81
2022/02/21 02:52:12;;;;;;;63.07;36.93;;;;;;;1.74;64.12;100285.74;126203;1097;104176;-81
2022/02/21 02:54:43;;;;;;;58.30;35.73;;;;;;;1.72;64.33;100292.52;126303;1099;104143;-81
2022/02/21 02:57:14;;;;;;;63.00;37.53;;;;;;;1.70;64.64;100288.94;126374;1099;104143;-81
2022/02/21 02:59:46;;;;;;;61.13;37.07;;;;;;;1.69;64.38;100283.66;126326;1099;104143;-81
2022/02/21 03:02:18;;;;;;;61.23;35.87;;;;;;;1.68;64.48;100285.33;126347;1099;104192;-81
2022/02/21 03:04:50;;;;;;;58.57;34.73;;;;;;;1.62;64.61;100284.91;126326;1099;104245;-81
2022/02/21 03:07:22;;;;;;;67.70;38.33;;;;;;;1.60;64.33;100283.92;126359;1099;104204;-81
2022/02/21 03:09:53;;;;;;;59.73;36.57;;;;;;;1.61;64.37;100273.68;126336;1099;104217;-80
2022/02/21 03:12:25;;;;;;;63.90;37.20;;;;;;;1.61;64.22;100272.80;126182;1099;104140;-80
2022/02/21 03:14:58;;;;;;;60.73;35.57;;;;;;;1.59;64.62;100274.36;126099;1099;104140;-81
2022/02/21 03:17:29;;;;;;;58.60;34.10;;;;;;;1.57;64.53;100270.78;126135;1099;104224;-81
2022/02/21 03:20:00;;;;;;;56.20;34.50;;;;;;;1.53;64.57;100266.22;126099;1099;104150;-80
2022/02/21 03:22:33;;;;;;;;;;;;;;;1.51;64.73;100260.94;126137;1099;104204;-80
2022/02/21 03:25:05;;;;;;;55.20;31.70;;;;;;;1.48;64.94;100264.98;126223;1099;104150;-80
2022/02/21 03:27:42;;;;;;;51.43;30.00;;;;;;;1.44;64.96;100254.44;126346;1099;104701;-80
2022/02/21 03:30:15;;;;;;;57.03;32.33;;;;;;;1.42;64.58;100248.27;126339;1099;104596;-80
2022/02/21 03:32:46;;;;;;;56.43;30.80;;;;;;;1.40;64.84;100247.28;126355;1099;104181;-81
2022/02/21 03:35:18;;;;;;;55.37;32.13;;;;;;;1.39;64.77;100244.59;126349;1099;104141;-81
2022/02/21 03:37:49;;;;;;;53.03;31.27;;;;;;;1.33;64.71;100246.76;126318;1098;104226;-80
2022/02/21 03:40:20;;;;;;;56.20;31.67;;;;;;;1.28;64.99;100242.94;126298;1096;104229;-82
2022/02/21 03:42:53;;;;;;;54.50;30.33;;;;;;;1.24;64.96;100247.02;126268;1098;104201;-81
2022/02/21 03:45:25;;;;;;;56.77;31.87;;;;;;;1.21;64.83;100236.46;126152;1096;104213;-80
2022/02/21 03:47:57;;;;;;;52.90;30.90;;;;;;;1.21;64.99;100239.93;126118;1099;104156;-80
2022/02/21 03:50:29;;;;;;;52.20;28.60;;;;;;;1.24;65.04;100236.67;126109;1096;104192;-81
2022/02/21 03:53:01;;;;;;;52.07;30.07;;;;;;;1.25;65.09;100238.48;126170;1099;104178;-81
2022/02/21 03:55:34;;;;;;;53.93;29.43;;;;;;;1.25;64.81;100236.78;126168;1099;104169;-82
2022/02/21 03:58:06;;;;;;;54.77;28.50;;;;;;;1.26;65.26;100240.25;126131;1099;104159;-79
2022/02/21 04:00:37;;;;;;;52.50;29.20;;;;;;;1.21;65.59;100232.17;126278;1099;101793;-80
2022/02/21 04:03:09;;;;;;;57.07;31.33;;;;;;;1.20;65.10;100239.83;126388;1096;104198;-79
2022/02/21 04:05:40;;;;;;;50.57;28.73;;;;;;;1.20;65.12;100251.08;126290;1096;104134;-79
2022/02/21 04:08:12;;;;;;;50.23;29.10;;;;;;;1.19;65.58;100249.28;126309;1096;104245;-80
2022/02/21 04:10:43;;;;;;;54.73;30.60;;;;;;;1.17;65.24;100244.78;126362;1096;104174;-80
2022/02/21 04:13:14;;;;;;;58.40;31.27;;;;;;;1.16;65.26;100238.73;126389;1098;104249;-79
2022/02/21 04:15:46;;;;;;;54.57;29.67;;;;;;;1.15;65.28;100229.17;126317;1099;104178;-79
2022/02/21 04:18:17;;;;;;;54.00;30.33;;;;;;;1.11;65.46;100227.19;126242;1099;104217;-79
2022/02/21 04:20:49;;;;;;;52.47;30.47;;;;;;;1.08;65.30;100216.64;126298;1099;104195;-79
2022/02/21 04:23:21;;;;;;;54.20;30.53;;;;;;;1.07;65.29;100215.72;126357;1096;104194;-79
2022/02/21 04:25:53;;;;;;;58.93;32.47;;;;;;;1.02;65.22;100211.05;126266;1096;104185;-78
2022/02/21 04:28:24;;;;;;;60.00;33.33;;;;;;;0.92;65.54;100209.52;126372;1096;104220;-79
2022/02/21 04:30:56;;;;;;;65.53;32.60;;;;;;;0.79;65.53;100219.78;126301;1096;104210;-80
2022/02/21 04:33:28;;;;;;;61.17;32.47;;;;;;;0.68;65.65;100217.33;126319;1099;104150;-80
2022/02/21 04:35:59;;;;;;;61.30;32.17;;;;;;;0.58;65.57;100199.41;126338;1099;104188;-79
2022/02/21 04:38:30;;;;;;;67.00;33.17;;;;;;;0.54;65.73;100199.97;126302;1099;104166;-79
2022/02/21 04:41:02;;;;;;;72.00;39.73;;;;;;;0.50;65.36;100190.23;126262;1099;104396;-80
2022/02/21 04:43:34;;;;;;;82.13;42.70;;;;;;;0.45;66.00;100189.91;126356;1099;104195;-79
2022/02/21 04:46:07;;;;;;;88.30;41.40;;;;;;;0.42;65.65;100183.61;126355;1099;104605;-79
2022/02/21 04:48:40;;;;;;;81.00;42.03;;;;;;;0.39;65.64;100185.97;126286;1099;103448;-79
2022/02/21 04:51:11;;;;;;;75.70;39.87;;;;;;;0.38;65.84;100189.36;126255;1099;104159;-80
2022/02/21 04:53:43;;;;;;;75.50;39.40;;;;;;;0.42;65.35;100199.10;126311;1099;104406;-79
2022/02/21 04:56:14;;;;;;;71.70;38.27;;;;;;;0.45;65.14;100200.23;126314;1099;104153;-79
2022/02/21 04:58:46;;;;;;;71.97;37.90;;;;;;;0.51;66.09;100200.67;126273;1099;104284;-80
2022/02/21 05:01:17;;;;;;;73.43;38.80;;;;;;;0.54;65.79;100195.70;126347;1099;104182;-79
2022/02/21 05:03:48;;;;;;;67.10;38.10;;;;;;;0.57;65.73;100196.72;126433;1097;104265;-79
2022/02/21 05:06:19;;;;;;;70.87;39.40;;;;;;;0.60;65.74;100197.83;126315;1099;104169;-79
2022/02/21 05:08:51;;;;;;;79.83;38.17;;;;;;;0.61;65.62;100189.30;126332;1099;102258;-79
2022/02/21 05:11:22;;;;;;;76.57;37.53;;;;;;;0.61;65.71;100197.05;126335;1099;104162;-79
2022/02/21 05:13:54;;;;;;;74.27;38.20;;;;;;;0.64;65.94;100192.09;126129;1099;111886;-79
2022/02/21 05:16:25;;;;;;;80.00;40.47;;;;;;;0.65;66.29;100190.41;126076;1099;102004;-79
2022/02/21 05:18:59;;;;;;;86.90;37.50;;;;;;;0.67;66.21;100194.89;126153;1099;104322;-79
2022/02/21 05:21:30;;;;;;;89.07;40.73;;;;;;;0.70;66.23;100192.53;126193;1099;104137;-80
2022/02/21 05:24:02;;;;;;;77.35;39.50;;;;;;;0.73;65.77;100191.83;126169;1099;104198;-79
2022/02/21 05:26:33;;;;;;;82.33;39.93;;;;;;;0.71;66.01;100188.25;126180;1099;104217;-79
2022/02/21 05:29:04;;;;;;;79.07;42.67;;;;;;;0.70;66.37;100181.28;126194;1099;104169;-79
2022/02/21 05:31:36;;;;;;;82.95;41.85;;;;;;;0.70;66.24;100176.11;126376;1099;104149;-79
2022/02/21 05:34:07;;;;;;;80.73;40.97;;;;;;;0.71;65.88;100175.34;126207;1099;104274;-79
2022/02/21 05:36:41;;;;;;;85.40;45.40;;;;;;;0.76;65.80;100170.48;126265;1099;104139;-79
2022/02/21 05:39:12;;;;;;;93.70;47.90;;;;;;;0.76;66.03;100161.05;126285;1097;104140;-79
2022/02/21 05:41:43;;;;;;;98.83;52.93;;;;;;;0.70;66.85;100168.36;126393;1097;104150;-79
2022/02/21 05:44:15;;;;;;;108.30;55.80;;;;;;;0.67;66.41;100176.82;126411;1096;104310;-80
2022/02/21 05:46:46;;;;;;;102.93;55.20;;;;;;;0.71;66.23;100189.13;126012;1099;104156;-79
2022/02/21 05:49:18;;;;;;;100.93;56.40;;;;;;;0.75;66.39;100189.34;126033;1099;104185;-78
2022/02/21 05:51:49;;;;;;;101.23;53.93;;;;;;;0.82;66.19;100191.58;126283;1096;104146;-79
2022/02/21 05:54:21;;;;;;;101.90;52.60;;;;;;;0.89;66.80;100189.53;126073;1096;104143;-79
2022/02/21 05:56:52;;;;;;;97.70;52.83;;;;;;;0.96;66.69;100193.42;126233;1099;104195;-78
2022/02/21 05:59:23;;;;;;;97.63;52.23;;;;;;;1.01;66.83;100188.57;126285;1099;104274;-78
2022/02/21 06:01:55;;;;;;;95.83;52.20;;;;;;;1.06;66.41;100188.11;126335;1099;104227;-78
2022/02/21 06:04:26;;;;;;;102.47;54.07;;;;;;;1.11;66.69;100190.09;126295;1096;104189;-78
2022/02/21 06:06:58;;;;;;;109.47;59.67;;;;;;;1.20;66.23;100185.55;126328;1096;104284;-78
2022/02/21 06:09:29;;;;;;;98.47;52.27;;;;;;;1.27;66.81;100181.72;126281;1096;104224;-79
2022/02/21 06:12:01;;;;;;;94.17;51.10;;;;;;;1.33;66.87;100180.42;126253;1096;104139;-78
2022/02/21 06:14:32;;;;;;;96.23;50.70;;;;;;;1.39;67.05;100182.54;126302;1096;104171;-78
2022/02/21 06:17:04;;;;;;;88.57;47.67;;;;;;;1.45;66.84;100172.61;126306;1099;104242;-80
2022/02/21 06:19:35;;;;;;;91.60;45.40;;;;;;;1.56;66.85;100175.91;126291;1099;104169;-79
2022/02/21 06:22:07;;;;;;;84.47;43.90;;;;;;;1.63;67.05;100175.50;125979;1096;104195;-80
2022/02/21 06:24:39;;;;;;;75.93;40.57;;;;;;;1.74;67.25;100174.50;126049;1099;104300;-79
2022/02/21 06:27:11;;;;;;;88.65;42.70;;;;;;;1.91;67.55;100164.38;126114;1096;104239;-80
2022/02/21 06:29:43;;;;;;;76.77;38.00;;;;;;;2.05;67.22;100165.27;126162;1096;104207;-78
2022/02/21 06:32:15;;;;;;;70.83;36.60;;;;;;;2.20;67.15;100165.33;126047;1096;104213;-80
2022/02/21 06:34:51;;;;;;;65.07;32.13;;;;;;;2.33;66.85;100175.68;126194;1096;103459;-79
2022/02/21 06:37:23;;;;;;;61.63;29.87;;;;;;;2.45;66.78;100160.91;126242;1099;104144;-79
2022/02/21 06:39:54;;;;;;;58.07;29.63;;;;;;;2.59;67.13;100153.13;126083;1099;104175;-82
2022/02/21 06:42:28;;;;;;;58.63;29.77;;;;;;;2.72;67.31;100146.98;125907;1099;104220;-81
2022/02/21 06:45:00;;;;;;;52.05;27.20;;;;;;;2.85;67.06;100153.02;126000;1097;104229;-79
2022/02/21 06:47:34;;;;;;;48.33;24.63;;;;;;;3.01;67.40;100141.87;125948;1099;104325;-83
2022/02/21 06:50:09;;;;;;;45.03;23.13;;;;;;;3.19;67.50;100139.46;125959;1099;104320;-80
2022/02/21 06:52:41;;;;;;;48.03;22.10;;;;;;;3.40;67.29;100129.47;125995;1099;104240;-82
2022/02/21 06:55:13;;;;;;;45.50;21.57;;;;;;;3.58;67.50;100124.47;125809;1099;104181;-81
2022/02/21 06:57:46;;;;;;;45.40;21.77;;;;;;;3.76;66.49;100126.31;126041;1099;105207;-80
2022/02/21 07:00:19;;;;;;;47.53;22.50;;;;;;;3.93;66.91;100125.56;126082;1099;104142;-80
2022/02/21 07:02:51;;;;;;;44.37;20.17;;;;;;;4.09;67.01;100124.70;125957;1099;104207;-80
2022/02/21 07:05:27;;;;;;;41.80;19.40;;;;;;;4.23;66.70;100114.20;125910;1099;103993;-84
2022/02/21 07:08:00;;;;;;;43.05;18.80;;;;;;;4.35;66.73;100122.66;125817;1099;104258;-81
2022/02/21 07:10:33;;;;;;;43.23;20.00;;;;;;;4.48;66.32;100116.42;125289;1099;104249;-81
2022/02/21 07:13:09;;;;;;;43.13;19.70;;;;;;;4.65;65.98;100107.81;125758;1099;104300;-80
2022/02/21 07:15:53;;;;;;;38.28;19.85;;;;;;;4.82;66.69;100098.30;126009;1099;103974;-82
2022/02/21 07:18:28;;;;;;;42.27;19.10;;;;;;;4.98;66.64;100092.18;125810;1098;104309;-79
2022/02/21 07:21:01;;;;;;;39.43;17.83;;;;;;;5.08;65.86;100093.57;126102;1099;104274;-81
2022/02/21 07:23:37;;;;;;;32.70;15.63;;;;;;;5.22;66.45;100095.16;125968;1099;104379;-83
2022/02/21 07:26:10;;;;;;;28.63;11.90;;;;;;;5.36;65.67;100075.03;125882;1099;104283;-81
2022/02/21 07:28:46;;;;;;;25.50;10.33;;;;;;;5.53;65.52;100075.88;125848;1099;104245;-80
2022/02/21 07:31:29;;;;;;;24.47;10.43;;;;;;;5.66;65.13;100072.14;125860;1099;104268;-81
2022/02/21 07:34:09;;;;;;;23.92;10.00;;;;;;;5.82;65.19;100068.56;125890;1098;104162;-81
2022/02/21 07:36:45;;;;;;;25.60;10.03;;;;;;;5.93;65.16;100062.14;125953;1099;102661;-82
2022/02/21 07:39:22;;;;;;;23.63;10.77;;;;;;;6.02;64.82;100053.03;125068;1099;104284;-83
2022/02/21 07:42:08;;;;;;;26.80;11.90;;;;;;;6.08;64.51;100054.20;125173;1099;102739;-80
2022/02/21 07:44:50;;;;;;;27.63;11.50;;;;;;;6.16;64.35;100051.07;125174;1100;104272;-81
2022/02/21 07:47:47;;;;;;;28.37;11.00;;;;;;;6.27;64.69;100050.72;125113;1103;104137;-81
2022/02/21 07:50:27;;;;;;;30.17;10.40;;;;;;;6.45;64.55;100048.07;125118;1100;104832;-80
2022/02/21 07:53:10;;;;;;;26.50;12.23;;;;;;;6.59;63.87;100050.38;125281;1102;104204;-81
2022/02/21 07:55:52;;;;;;;27.43;12.40;;;;;;;6.72;64.03;100047.50;125197;1102;104217;-81
2022/02/21 07:58:31;;;;;;;27.40;12.47;;;;;;;6.89;64.10;100043.02;125865;1099;104280;-84
2022/02/21 08:01:09;;;;;;;32.60;13.70;;;;;;;7.03;63.50;100038.40;125932;1100;104208;-81
2022/02/21 08:03:47;;;;;;;32.43;12.67;;;;;;;7.18;63.36;100041.66;126043;1099;104146;-81
2022/02/21 08:06:38;;;;;;;28.03;12.10;;;;;;;7.30;63.48;100045.59;126151;1099;104284;-80
2022/02/21 08:09:22;;;;;;;24.50;10.37;;;;;;;7.45;62.42;100041.02;125907;1099;104169;-81
2022/02/21 08:12:08;;;;;;;27.57;10.53;;;;;;;7.61;61.96;100026.84;126132;1099;104288;-81
2022/02/21 08:14:48;;;;;;;27.63;10.77;;;;;;;7.75;61.20;100019.56;126019;1099;104172;-80
2022/02/21 08:17:28;;;;;;;24.53;9.83;;;;;;;7.88;60.54;100010.47;126289;1097;104239;-79
2022/02/21 08:20:02;;;;;;;28.35;10.20;;;;;;;8.02;61.53;100013.62;126064;1099;104194;-79
2022/02/21 08:22:38;;;;;;;22.60;8.50;;;;;;;8.18;60.91;100015.99;125914;1099;104233;-80
2022/02/21 08:25:15;;;;;;;20.43;8.33;;;;;;;8.33;61.15;100010.42;126057;1099;104165;-78
2022/02/21 08:27:48;;;;;;;23.07;8.10;;;;;;;8.49;58.84;100005.79;126048;1099;110942;-80
2022/02/21 08:30:45;;;;;;;24.97;7.53;;;;;;;8.62;59.77;99998.44;125923;1099;104268;-82
2022/02/21 08:33:33;;;;;;;22.00;7.50;;;;;;;8.73;57.62;99984.86;125975;1099;104302;-81
2022/02/21 08:36:45;;;;;;;17.80;6.53;;;;;;;8.86;56.77;99980.94;125948;1099;104146;-80
2022/02/21 08:39:30;;;;;;;19.05;7.20;;;;;;;8.96;57.44;99968.22;125799;1099;104146;-81
2022/02/21 08:42:12;;;;;;;17.63;5.97;;;;;;;9.11;57.57;99969.56;125857;1099;104179;-80
2022/02/21 08:44:48;;;;;;;17.47;6.27;;;;;;;9.26;57.96;99967.45;125909;1099;101988;-81
2022/02/21 08:47:31;;;;;;;15.37;5.90;;;;;;;9.34;57.25;99970.31;125963;1099;104236;-80
2022/02/21 08:50:13;;;;;;;13.30;5.43;;;;;;;9.41;57.45;99961.83;125886;1099;104217;-79
2022/02/21 08:53:03;;;;;;;12.63;5.30;;;;;;;9.51;57.54;99962.99;126187;1099;104213;-78
2022/02/21 08:55:47;;;;;;;14.43;5.53;;;;;;;9.59;56.90;99969.35;126136;1099;104178;-79
2022/02/21 08:58:36;;;;;;;;;;;;;;;;;;;;;
2022/02/21 09:01:13;;;;;;;13.10;5.03;;;;;;;9.88;54.49;99965.00;125951;1099;102864;-82
2022/02/21 09:04:08;;;;;;;13.00;5.30;;;;;;;10.00;55.41;99967.11;126000;1099;104272;-80
2022/02/21 09:06:53;;;;;;;14.10;4.87;;;;;;;10.11;53.60;99956.91;126118;1099;104261;-80
2022/02/21 09:09:31;;;;;;;11.53;4.77;;;;;;;10.15;53.83;99952.66;126208;1099;104248;-79
2022/02/21 09:12:15;;;;;;;11.77;5.03;;;;;;;10.23;54.86;99940.66;126133;1099;102384;-78
2022/02/21 09:14:56;;;;;;;14.60;5.80;;;;;;;10.25;52.49;99944.19;126052;1099;104210;-79
2022/02/21 09:17:47;;;;;;;12.33;4.90;;;;;;;10.39;52.18;99935.03;126065;1098;102308;-79
2022/02/21 09:20:24;;;;;;;11.80;4.87;;;;;;;10.48;53.44;99933.50;125978;1099;104268;-76
2022/02/21 09:23:01;;;;;;;14.77;5.30;;;;;;;10.62;53.48;99929.50;126065;1098;101921;-78
2022/02/21 09:25:38;;;;;;;11.43;4.60;;;;;;;10.68;52.20;99919.16;126211;1099;104143;-77
2022/02/21 09:28:25;;;;;;;9.37;4.07;;;;;;;10.77;49.05;99922.02;125810;1099;104153;-79
2022/02/21 09:30:59;;;;;;;12.60;4.10;;;;;;;10.93;52.14;99915.41;126052;1099;104184;-79
2022/02/21 09:33:47;;;;;;;11.67;4.40;;;;;;;11.02;50.34;99919.14;126037;1099;104137;-77
2022/02/21 09:36:27;;;;;;;10.67;3.90;;;;;;;11.18;50.94;99916.02;126005;1099;104223;-79
2022/02/21 09:39:07;;;;;;;8.10;3.85;;;;;;;11.30;50.61;99899.67;126043;1099;104194;-80
2022/02/21 09:41:51;;;;;;;12.53;4.03;;;;;;;11.40;50.96;99903.39;126203;1099;104143;-82
2022/02/21 09:48:24;;;;;;;9.10;4.00;;;;;;;11.47;50.11;99893.05;125529;1096;104133;-82
2022/02/21 09:51:07;;;;;;;10.13;4.20;;;;;;;11.53;50.37;99887.06;126155;1096;104229;-80
2022/02/21 09:53:56;;;;;;;11.27;4.70;;;;;;;11.57;48.98;99877.49;126005;1099;104201;-83
2022/02/21 09:57:01;;;;;;;10.00;4.10;;;;;;;11.63;48.49;99880.25;125986;1096;104331;-81
2022/02/21 09:59:52;;;;;;;14.17;4.50;;;;;;;11.65;48.40;99870.66;125128;1102;107295;-80
2022/02/21 10:02:40;;;;;;;8.20;4.10;;;;;;;11.61;48.25;99868.80;125241;1102;104430;-81
2022/02/21 10:05:21;;;;;;;13.27;4.47;;;;;;;11.63;48.02;99856.61;125275;1099;104726;-81
2022/02/21 10:08:15;;;;;;;10.93;3.93;;;;;;;11.75;47.63;99830.58;125235;1100;104250;-82
2022/02/21 10:10:59;;;;;;;11.00;3.80;;;;;;;11.84;45.02;99814.99;125329;1099;104370;-82
2022/02/21 10:14:01;;;;;;;7.53;3.70;;;;;;;11.99;44.54;99813.54;125082;1100;104268;-81
2022/02/21 10:16:46;;;;;;;10.73;3.80;;;;;;;12.06;46.00;99804.92;125510;1102;104294;-81
2022/02/21 10:19:51;;;;;;;;;;;;;;;;;;;;;
2022/02/21 10:23:05;;;;;;;11.30;3.90;;;;;;;12.19;42.97;99784.98;126155;1099;104229;-82
2022/02/21 10:26:02;;;;;;;8.67;3.90;;;;;;;12.27;43.67;99782.48;126132;1099;104188;-84
2022/02/21 10:29:07;;;;;;;11.37;3.93;;;;;;;12.32;42.76;99788.70;126015;1099;104211;-85
2022/02/21 10:32:13;;;;;;;10.67;3.70;;;;;;;12.37;43.66;99789.66;126074;1099;103754;-83
2022/02/21 10:35:16;;;;;;;11.47;4.30;;;;;;;12.42;44.26;99788.02;125963;1096;104201;-84
2022/02/21 10:37:59;;;;;;;12.70;4.70;;;;;;;12.47;43.68;99780.20;125904;1099;104165;-81
2022/02/21 10:40:36;;;;;;;14.93;5.50;;;;;;;12.48;43.96;99777.59;125983;1098;118635;-81
2022/02/21 10:43:20;;;;;;;13.10;5.00;;;;;;;12.53;44.22;99760.12;125923;1099;104168;-81
2022/02/21 10:45:59;;;;;;;14.00;4.77;;;;;;;12.55;43.84;99760.14;126003;1099;102862;-80
2022/02/21 10:48:34;;;;;;;13.93;4.50;;;;;;;12.50;41.28;99752.17;126098;1099;104146;-79
2022/02/21 10:51:14;;;;;;;12.33;5.13;;;;;;;12.50;42.95;99748.67;126205;1099;104169;-81
2022/02/21 10:54:09;;;;;;;12.17;4.07;;;;;;;12.36;38.11;99735.30;126085;1098;104291;-80
2022/02/21 10:57:05;;;;;;;10.90;4.33;;;;;;;12.42;41.62;99732.76;126159;1099;104210;-81
2022/02/21 10:59:47;;;;;;;12.03;4.27;;;;;;;12.39;41.15;99730.08;126119;1099;104424;-82
2022/02/21 11:02:25;;;;;;;11.07;4.17;;;;;;;12.37;40.89;99722.16;126002;1098;104143;-84
2022/02/21 11:05:13;;;;;;;12.27;4.97;;;;;;;12.40;40.64;99726.56;125915;1099;104410;-83
2022/02/21 11:07:54;;;;;;;14.87;5.00;;;;;;;12.45;40.85;99710.85;125914;1099;104511;-82
2022/02/21 11:11:09;;;;;;;11.13;5.00;;;;;;;12.48;41.00;99714.44;125836;1098;102880;-84
2022/02/21 11:14:03;;;;;;;13.50;5.10;;;;;;;12.47;40.98;99704.77;125700;1099;102455;-83
2022/02/21 11:16:40;;;;;;;13.10;4.73;;;;;;;12.47;40.07;99691.61;126010;1098;104270;-79
2022/02/21 11:19:15;;;;;;;10.23;4.73;;;;;;;12.48;40.62;99687.22;125801;1099;102194;-81
2022/02/21 11:21:50;;;;;;;15.73;4.73;;;;;;;12.51;40.92;99679.38;125726;1099;104312;-80
2022/02/21 11:24:27;;;;;;;9.40;4.00;;;;;;;12.56;40.87;99670.69;125779;1099;104236;-80
2022/02/21 11:27:10;;;;;;;12.27;4.50;;;;;;;12.58;40.34;99673.34;125784;1099;104195;-80
2022/02/21 11:30:04;;;;;;;13.83;4.53;;;;;;;12.57;39.88;99658.41;125786;1099;104140;-83
2022/02/21 11:33:01;;;;;;;14.27;5.20;;;;;;;12.58;40.62;99647.91;125813;1099;104265;-83
2022/02/21 11:35:46;;;;;;;10.90;4.10;;;;;;;12.60;38.01;99650.55;125783;1099;104261;-81
2022/02/21 11:38:23;;;;;;;8.87;3.90;;;;;;;12.63;40.13;99654.98;125732;1099;104194;-81
2022/02/21 11:41:04;;;;;;;10.93;3.60;;;;;;;12.65;39.70;99650.62;125883;1099;104221;-83
2022/02/21 11:43:44;;;;;;;10.63;4.40;;;;;;;12.63;39.47;99644.46;126072;1099;103848;-82
2022/02/21 11:46:28;;;;;;;9.67;4.50;;;;;;;12.60;38.92;99632.13;126045;1099;104178;-81
2022/02/21 11:49:07;;;;;;;9.30;4.00;;;;;;;12.65;39.73;99646.23;126156;1099;104920;-82
2022/02/21 11:51:42;;;;;;;7.70;3.77;;;;;;;12.66;39.06;99628.71;125974;1099;104197;-82
2022/02/21 11:54:46;;;;;;;12.17;4.17;;;;;;;12.70;39.61;99625.23;126180;1097;104156;-82